Viktor — D5KG3 — position and weather

sailwx.info

Track history (hours):
 
Tides and Currents Weather Stations Pressure Air Temp Water Temp Dewpoint Dewpoint Depression Visibility Wind Speed Wind Dir Waves Ship Positions

Viktor

Last reported at 2017-Oct-17 00:31 UTC. Time now 2017-Oct-17 13:51 UTC.
Position N 40°59' E 028°59'.

Length 140 m; draft 4.3 m.

Type: Cargo ship. MMSI: 636017300.

Date/timePositionNaut miles runAvg speedWind from/ knotsBaromVisibWave heightAir tempDewpointWater temp
2017-Oct-17 00:31N 40°59' E 028°59'165 6.2
2017-Oct-15 21:52N 43°42' E 029°37'3 9.0
2017-Oct-15 21:30N 43°45' E 029°38'4 8.9
2017-Oct-15 21:00N 43°49' E 029°39'4 8.9
2017-Oct-15 20:30N 43°54' E 029°40'4 8.9
2017-Oct-15 20:00N 43°58' E 029°41'4 8.8
2017-Oct-15 19:30N 44°02' E 029°42'4 9.0
2017-Oct-15 19:00N 44°07' E 029°43'4 8.9
2017-Oct-15 18:30N 44°11' E 029°44'5 9.0
2017-Oct-15 18:00N 44°16' E 029°45'4 8.8
2017-Oct-15 17:30N 44°20' E 029°45'4 8.6
2017-Oct-15 16:59N 44°24' E 029°46'  
2017-Oct-09 05:57N 45°08' E 029°47'75 7.8
2017-Oct-08 20:19N 43°55' E 029°29'2 7.0
2017-Oct-08 19:59N 43°52' E 029°28'4 7.0
2017-Oct-08 19:26N 43°49' E 029°25'171 6.3
2017-Oct-07 16:23N 40°59' E 028°60'3 5.7
2017-Oct-07 15:55N 40°56' E 028°58'4 5.4
2017-Oct-07 15:12N 40°53' E 028°55'2 5.5
2017-Oct-07 14:53N 40°52' E 028°54'2 4.0
2017-Oct-07 14:30N 40°51' E 028°52'25 4.7
2017-Oct-07 09:10N 40°27' E 029°01'  
Track history (hours):
 
Tides and Currents Weather Stations Pressure Air Temp Water Temp Dewpoint Dewpoint Depression Visibility Wind Speed Wind Dir Waves Ship Positions

Viktor

Last reported at 2017-Oct-17 00:31 UTC. Time now 2017-Oct-17 13:51 UTC.
Position N 40°59' E 028°59'.

Length 140 m; draft 4.3 m.

Type: Cargo ship. MMSI: 636017300.

Date/timePositionNaut miles runAvg speedWind from/ knotsBaromVisibWave heightAir tempDewpointWater temp
2017-Oct-17 00:31N 40°59' E 028°59'165 6.2
2017-Oct-15 21:52N 43°42' E 029°37'3 9.0
2017-Oct-15 21:30N 43°45' E 029°38'4 8.9
2017-Oct-15 21:00N 43°49' E 029°39'4 8.9
2017-Oct-15 20:30N 43°54' E 029°40'4 8.9
2017-Oct-15 20:00N 43°58' E 029°41'4 8.8
2017-Oct-15 19:30N 44°02' E 029°42'4 9.0
2017-Oct-15 19:00N 44°07' E 029°43'4 8.9
2017-Oct-15 18:30N 44°11' E 029°44'5 9.0
2017-Oct-15 18:00N 44°16' E 029°45'4 8.8
2017-Oct-15 17:30N 44°20' E 029°45'4 8.6
2017-Oct-15 16:59N 44°24' E 029°46'  
2017-Oct-09 05:57N 45°08' E 029°47'75 7.8
2017-Oct-08 20:19N 43°55' E 029°29'2 7.0
2017-Oct-08 19:59N 43°52' E 029°28'4 7.0
2017-Oct-08 19:26N 43°49' E 029°25'171 6.3
2017-Oct-07 16:23N 40°59' E 028°60'3 5.7
2017-Oct-07 15:55N 40°56' E 028°58'4 5.4
2017-Oct-07 15:12N 40°53' E 028°55'2 5.5
2017-Oct-07 14:53N 40°52' E 028°54'2 4.0
2017-Oct-07 14:30N 40°51' E 028°52'25 4.7
2017-Oct-07 09:10N 40°27' E 029°01'  

Dump ship's entire track history